Time;durP1;ratioP1;P1;durP2;ratioP2;P2;SDS_P1;SDS_P2;PMS_P1;PMS_P2;Temp;Humidity;BMP_temperature;BMP_pressure;BME280_temperature;BME280_humidity;BME280_pressure;Samples;Min_cycle;Max_cycle;Signal;HPM_P1;HPM_P2
2021/11/09 08:41:42;;;;;;;6.97;3.97;;;;;;;5.53;96.29;100140.53;5107278;28;20571;-77
2021/11/09 08:44:13;;;;;;;5.03;3.20;;;;;;;6.20;95.64;100139.00;5105598;28;39672;-76
2021/11/09 08:46:43;;;;;;;6.03;3.17;;;;;;;6.87;91.72;100142.56;5089016;28;40591;-79
2021/11/09 08:49:12;;;;;;;3.97;3.00;;;;;;;7.28;88.23;100137.00;5105740;28;43819;-79
2021/11/09 08:51:40;;;;;;;5.20;3.20;;;;;;;7.82;85.93;100146.81;5107583;28;41892;-80
2021/11/09 08:54:15;;;;;;;4.57;3.40;;;;;;;8.25;82.54;100154.25;5107430;28;40897;-80
2021/11/09 09:05:00;;;;;;;4.43;3.07;;;;;;;9.11;76.66;100147.81;5106653;28;39473;-79
2021/11/09 09:07:29;;;;;;;3.93;2.87;;;;;;;9.49;74.93;100156.97;5140230;27;41657;-79
2021/11/09 09:09:57;;;;;;;5.57;3.30;;;;;;;10.03;74.46;100158.41;5089106;28;41620;-78
2021/11/09 09:12:29;;;;;;;7.23;3.77;;;;;;;10.13;72.98;100158.94;5105157;28;42341;-78
2021/11/09 09:14:57;;;;;;;4.13;3.70;;;;;;;10.08;72.86;100156.44;5104702;28;40629;-78
2021/11/09 09:17:26;;;;;;;5.20;3.50;;;;;;;10.02;72.43;100157.53;5129010;27;41841;-81
2021/11/09 09:19:56;;;;;;;5.67;3.60;;;;;;;9.92;72.10;100155.31;5074386;28;42881;-80
2021/11/09 09:22:27;;;;;;;4.57;3.50;;;;;;;9.87;72.37;100157.31;5088863;28;42062;-81
2021/11/09 09:25:10;;;;;;;4.10;3.47;;;;;;;9.81;72.41;100153.09;5105973;28;40004;-84
2021/11/09 09:28:03;;;;;;;4.47;3.37;;;;;;;9.86;70.12;100167.03;5105679;28;41885;-80
2021/11/09 09:30:36;;;;;;;3.77;3.03;;;;;;;10.28;69.55;100180.38;5104535;28;43457;-80
2021/11/09 09:52:51;;;;;;;3.83;3.30;;;;;;;13.32;60.39;100196.41;5078606;28;41888;-82
2021/11/09 09:58:05;;;;;;;4.20;3.10;;;;;;;13.37;60.71;100173.06;5070608;28;39202;-81
2021/11/09 10:00:35;;;;;;;6.27;3.30;;;;;;;14.63;59.02;100163.34;5071577;28;41927;-84
2021/11/09 10:03:03;;;;;;;3.60;2.57;;;;;;;16.92;53.63;100201.47;5088205;28;42618;-79
2021/11/09 10:05:35;;;;;;;4.17;3.40;;;;;;;18.67;49.77;100224.75;5071486;28;43094;-84
2021/11/09 10:08:11;;;;;;;3.20;2.90;;;;;;;19.40;46.16;100228.25;5092079;28;39953;-86
2021/11/09 10:10:39;;;;;;;4.77;2.87;;;;;;;20.86;43.95;100249.66;5090912;28;41413;-85
2021/11/09 10:13:09;;;;;;;4.07;3.47;;;;;;;22.32;41.92;100242.41;5074531;28;41242;-83
2021/11/09 10:15:42;;;;;;;3.33;3.03;;;;;;;23.12;40.11;100234.19;5092255;28;42350;-87
2021/11/09 10:18:12;;;;;;;3.60;3.30;;;;;;;23.73;38.61;100250.13;5074063;28;39595;-83
2021/11/09 10:20:44;;;;;;;4.00;3.60;;;;;;;24.55;35.20;100257.50;5109017;28;40781;-84
2021/11/09 10:23:15;;;;;;;4.97;3.50;;;;;;;25.24;35.70;100255.03;5090915;28;43112;-88
2021/11/09 10:25:43;;;;;;;3.83;3.40;;;;;;;25.02;34.78;100256.38;5090875;28;42030;-82
2021/11/09 10:28:14;;;;;;;4.00;3.00;;;;;;;25.29;34.44;100244.59;5073565;28;39044;-83
2021/11/09 10:30:45;;;;;;;2.97;2.67;;;;;;;25.82;33.22;100253.69;5091501;28;40697;-84
2021/11/09 10:33:14;;;;;;;4.87;3.67;;;;;;;27.53;31.07;100270.44;5072994;28;41794;-79
2021/11/09 10:35:43;;;;;;;3.63;3.33;;;;;;;29.51;29.35;100271.25;5090292;28;42473;-81
2021/11/09 10:38:11;;;;;;;4.00;2.90;;;;;;;30.94;26.95;100273.56;5090015;28;39697;-81
2021/11/09 10:40:46;;;;;;;4.93;3.23;;;;;;;31.84;26.40;100278.53;5108602;28;41809;-81
2021/11/09 10:43:14;;;;;;;2.85;2.55;;;;;;;32.39;25.78;100274.91;5089926;28;41390;-81
2021/11/09 10:45:43;;;;;;;3.00;2.70;;;;;;;32.94;24.77;100270.31;5091779;28;42368;-80
2021/11/09 10:48:15;;;;;;;3.55;2.80;;;;;;;32.75;24.57;100273.88;5091341;28;39984;-81
2021/11/09 10:50:44;;;;;;;4.73;3.17;;;;;;;31.17;25.39;100250.69;5124851;27;42009;-79
2021/11/09 10:53:16;;;;;;;3.13;2.83;;;;;;;30.71;25.66;100253.75;5072072;28;42876;-82
2021/11/09 10:56:02;;;;;;;3.97;3.60;;;;;;;29.51;25.90;100225.69;5084630;28;40977;-81
2021/11/09 10:58:52;;;;;;;3.20;2.87;;;;;;;28.56;28.09;100207.91;5072961;28;38814;-81
2021/11/09 11:04:12;;;;;;;4.27;3.10;;;;;;;26.30;31.78;100186.06;5088732;28;41817;-83
2021/11/09 11:06:42;;;;;;;3.70;2.87;;;;;;;26.86;32.30;100173.63;5119451;27;42348;-81
2021/11/09 11:09:20;;;;;;;4.50;3.10;;;;;;;27.31;30.75;100162.28;5052449;28;39651;-85
2021/11/09 11:11:49;;;;;;;3.40;3.10;;;;;;;28.22;30.10;100198.16;5046698;28;42326;-84
2021/11/09 11:14:19;;;;;;;5.23;3.80;;;;;;;29.54;28.37;100203.47;5089711;28;43433;-83
2021/11/09 11:16:49;;;;;;;4.40;3.97;;;;;;;31.30;26.72;100207.03;5089470;28;42446;-80
2021/11/09 11:19:22;;;;;;;3.88;3.22;;;;;;;32.79;24.18;100231.22;5085677;28;39469;-80
2021/11/09 11:21:51;;;;;;;3.03;2.83;;;;;;;34.29;22.61;100234.28;5069963;28;41949;-81
2021/11/09 11:24:21;;;;;;;3.17;2.60;;;;;;;35.26;21.24;100228.53;5069279;28;43257;-79
2021/11/09 11:26:50;;;;;;;2.85;2.10;;;;;;;35.86;19.71;100237.16;5058322;28;42297;-84
2021/11/09 11:29:19;;;;;;;1.50;1.40;;;;;;;36.22;19.48;100230.03;5089342;28;39805;-86
2021/11/09 11:31:49;;;;;;;2.33;1.52;;;;;;;36.61;18.34;100243.34;5056248;28;41966;-81
2021/11/09 11:34:18;;;;;;;4.25;1.88;;;;;;;36.96;17.34;100248.25;5069687;28;43782;-81
2021/11/09 11:36:48;;;;;;;2.65;1.83;;;;;;;37.57;17.68;100233.28;5073948;28;41238;-81
2021/11/09 11:39:17;;;;;;;2.45;1.60;;;;;;;38.31;16.71;100229.84;5067360;28;39249;-79
2021/11/09 11:41:51;;;;;;;1.67;1.30;;;;;;;38.44;15.86;100231.50;5074264;28;41771;-83
2021/11/09 11:44:22;;;;;;;2.33;1.80;;;;;;;38.64;16.17;100226.41;5071559;28;42886;-81
2021/11/09 11:46:57;;;;;;;3.22;1.88;;;;;;;39.20;16.12;100215.53;5088434;28;42743;-80
2021/11/09 11:49:31;;;;;;;1.80;1.60;;;;;;;39.45;15.43;100224.34;5067554;28;38525;-80
2021/11/09 11:52:12;;;;;;;3.22;2.22;;;;;;;36.89;17.44;100197.75;5068754;28;42465;-79
2021/11/09 11:54:44;;;;;;;2.33;1.80;;;;;;;37.04;16.95;100196.25;5068147;28;42850;-80
2021/11/09 11:57:27;;;;;;;2.90;1.80;;;;;;;36.32;17.78;100183.44;5068086;28;42353;-80
2021/11/09 11:59:55;;;;;;;1.90;1.80;;;;;;;36.46;18.17;100186.88;5067930;28;39140;-80
2021/11/09 12:02:36;;;;;;;2.20;1.88;;;;;;;35.39;18.32;100174.38;5069738;28;42287;-79
2021/11/09 12:05:04;;;;;;;3.95;2.45;;;;;;;35.97;18.70;100167.50;5069122;28;42149;-81
2021/11/09 12:07:54;;;;;;;2.90;2.00;;;;;;;36.05;17.92;100158.06;5063317;28;41296;-82
2021/11/09 12:10:22;;;;;;;1.75;1.65;;;;;;;35.68;17.68;100168.19;5071620;28;39008;-81
2021/11/09 12:13:01;;;;;;;1.80;1.67;;;;;;;35.89;17.14;100170.53;5083335;28;40874;-82
2021/11/09 12:15:55;;;;;;;0.82;0.80;;;;;;;35.91;15.65;100178.56;5086476;28;44904;-81
2021/11/09 12:18:42;;;;;;;1.27;0.93;;;;;;;35.34;14.85;100182.50;5069581;28;41845;-80
2021/11/09 12:21:39;;;;;;;1.07;0.83;;;;;;;34.59;15.84;100172.13;5070393;28;40086;-82
2021/11/09 12:24:16;;;;;;;0.57;0.57;;;;;;;34.97;16.09;100159.44;5086047;28;43073;-82
2021/11/09 12:26:46;;;;;;;1.00;0.70;;;;;;;35.53;15.44;100162.19;5094173;28;43054;-83
2021/11/09 12:29:39;;;;;;;0.85;0.80;;;;;;;36.07;14.75;100166.09;5091727;28;41116;-80
2021/11/09 12:32:26;;;;;;;0.90;0.85;;;;;;;36.49;14.57;100167.91;5088691;28;40012;-79
2021/11/09 12:35:03;;;;;;;0.75;0.68;;;;;;;36.33;14.88;100149.25;5084156;28;40700;-84
2021/11/09 12:37:32;;;;;;;0.73;0.70;;;;;;;36.38;14.99;100132.81;5087693;28;41913;-82
2021/11/09 12:40:31;;;;;;;1.10;0.83;;;;;;;36.53;14.73;100149.81;5088743;28;42972;-82
2021/11/09 12:43:12;;;;;;;1.13;0.90;;;;;;;36.19;14.51;100153.22;5084193;28;40418;-82
2021/11/09 12:45:42;;;;;;;0.77;0.77;;;;;;;35.89;15.06;100139.34;5070748;28;40799;-78
2021/11/09 12:48:12;;;;;;;1.03;0.80;;;;;;;35.34;15.54;100135.66;5087452;28;43315;-83
2021/11/09 12:50:49;;;;;;;0.87;0.80;;;;;;;33.37;17.25;100125.31;5071418;28;41043;-79
2021/11/09 12:53:20;;;;;;;1.43;1.20;;;;;;;32.42;17.18;100120.91;5069120;28;38758;-79
2021/11/09 12:55:56;;;;;;;1.37;0.90;;;;;;;31.91;17.60;100116.88;5087831;28;42675;-84
2021/11/09 12:58:26;;;;;;;1.00;1.00;;;;;;;30.97;18.46;100113.66;5122165;27;43720;-79
2021/11/09 13:01:15;;;;;;;1.00;0.90;;;;;;;29.63;19.19;100097.75;5088102;28;42027;-82
2021/11/09 13:03:56;;;;;;;1.00;1.00;;;;;;;27.67;20.58;100061.19;5065078;28;39120;-86
2021/11/09 13:06:43;;;;;;;1.80;1.03;;;;;;;26.27;22.37;100074.16;5069781;28;40823;-80
2021/11/09 13:09:20;;;;;;;3.03;1.10;;;;;;;24.90;23.94;100073.25;5086956;28;42527;-81
2021/11/09 13:11:51;;;;;;;1.07;0.90;;;;;;;23.77;25.85;100064.81;5070332;28;42311;-80
2021/11/09 13:14:21;;;;;;;1.43;0.83;;;;;;;22.70;27.13;100022.03;5069703;28;39121;-78
2021/11/09 13:16:51;;;;;;;0.70;0.70;;;;;;;21.95;27.53;100038.91;5070018;28;41688;-80
2021/11/09 13:19:25;;;;;;;1.70;0.90;;;;;;;21.15;28.99;100010.94;5070590;28;41923;-82
2021/11/09 13:22:08;;;;;;;1.20;1.00;;;;;;;20.47;30.24;100013.38;5067169;28;41853;-79
2021/11/09 13:24:41;;;;;;;0.93;0.90;;;;;;;19.81;30.94;99999.19;5071623;28;40126;-80
2021/11/09 13:27:11;;;;;;;1.40;1.20;;;;;;;19.36;31.24;100013.53;5072216;28;40567;-79
2021/11/09 13:29:41;;;;;;;0.90;0.90;;;;;;;18.89;32.24;100006.59;5075345;28;42160;-80
2021/11/09 13:32:09;;;;;;;2.27;1.20;;;;;;;18.49;33.58;99997.19;5073972;28;41132;-81
2021/11/09 13:34:38;;;;;;;1.47;0.90;;;;;;;18.24;34.06;99998.22;5058392;28;39555;-81
2021/11/09 13:37:07;;;;;;;1.30;1.20;;;;;;;18.22;34.66;99994.78;5058898;28;42090;-82
2021/11/09 13:39:35;;;;;;;0.90;0.90;;;;;;;18.14;35.06;99995.38;5074354;28;42639;-78
2021/11/09 13:42:05;;;;;;;1.53;1.10;;;;;;;17.91;35.45;99993.56;5073826;28;41906;-80
2021/11/09 13:44:34;;;;;;;1.87;1.23;;;;;;;18.09;35.18;99989.50;5070355;28;38970;-81
2021/11/09 13:47:02;;;;;;;1.87;1.30;;;;;;;18.70;34.96;99982.13;5090714;28;42637;-81
2021/11/09 13:49:29;;;;;;;1.60;1.17;;;;;;;19.22;34.43;99964.59;5073447;28;41687;-78
2021/11/09 13:52:00;;;;;;;1.17;1.07;;;;;;;19.73;33.65;99992.63;5073994;28;42733;-79
2021/11/09 13:54:40;;;;;;;0.93;0.90;;;;;;;19.99;33.10;99984.22;5072604;28;38598;-79
2021/11/09 13:57:09;;;;;;;5.60;3.50;;;;;;;20.18;33.13;99997.81;5073214;28;41466;-79
2021/11/09 13:59:39;;;;;;;9.43;5.83;;;;;;;20.39;32.93;99981.75;5073896;28;43141;-82
2021/11/09 14:02:21;;;;;;;3.13;1.80;;;;;;;20.74;32.38;100011.03;5072454;28;41301;-83
2021/11/09 14:13:27;;;;;;;1.73;1.00;;;;;;;20.68;33.46;100000.78;5073580;28;41614;-86
2021/11/09 14:18:50;;;;;;;1.33;1.23;;;;;;;20.05;34.46;99978.31;5041800;28;42677;-86
2021/11/09 14:21:18;;;;;;;1.00;1.00;;;;;;;20.10;34.89;99978.81;5091443;28;43360;-81
2021/11/09 14:23:46;;;;;;;2.03;1.50;;;;;;;20.11;34.25;99991.28;5090742;28;41216;-80
2021/11/09 14:26:21;;;;;;;2.33;1.23;;;;;;;19.48;34.98;99978.59;5073504;28;38870;-82
2021/11/09 14:28:50;;;;;;;1.87;1.30;;;;;;;18.97;36.31;99988.03;5074351;28;41881;-80
2021/11/09 14:31:19;;;;;;;1.50;1.37;;;;;;;18.39;37.06;99972.06;5072808;28;44203;-81
2021/11/09 14:33:50;;;;;;;1.33;1.23;;;;;;;18.01;37.70;99980.34;5074110;28;42252;-86
2021/11/09 14:36:30;;;;;;;3.80;1.50;;;;;;;17.49;38.89;99958.22;5073183;28;38662;-85
2021/11/09 14:39:10;;;;;;;1.40;1.20;;;;;;;17.12;39.06;99964.56;5074101;28;41734;-81
2021/11/09 14:42:13;;;;;;;1.67;1.57;;;;;;;16.75;39.78;99956.47;5073583;28;42878;-84
2021/11/09 14:45:03;;;;;;;1.73;1.50;;;;;;;16.38;40.71;99951.94;5057982;28;42343;-78
2021/11/09 14:47:36;;;;;;;1.50;1.40;;;;;;;16.06;41.26;99949.66;5072129;28;38962;-80
2021/11/09 14:50:08;;;;;;;1.60;1.37;;;;;;;15.64;42.25;99923.13;5090188;28;41938;-82
2021/11/09 14:52:39;;;;;;;1.93;1.40;;;;;;;15.35;42.83;99933.00;5089715;28;42696;-85
2021/11/09 14:55:30;;;;;;;1.80;1.60;;;;;;;15.17;43.15;99940.41;5090487;28;43025;-83
2021/11/09 14:57:59;;;;;;;1.37;1.10;;;;;;;14.89;43.55;99940.44;5085831;28;40406;-83
2021/11/09 15:00:27;;;;;;;1.50;1.20;;;;;;;14.72;44.17;99945.00;5089521;28;41821;-81
2021/11/09 15:03:04;;;;;;;0.93;0.93;;;;;;;14.45;44.42;99929.88;5072405;28;41543;-80
2021/11/09 15:05:34;;;;;;;2.00;1.53;;;;;;;14.29;45.44;99937.91;5090326;28;42467;-81
2021/11/09 15:11:10;;;;;;;1.87;1.30;;;;;;;13.75;46.57;99924.25;5063472;28;41865;-82
2021/11/09 15:25:04;;;;;;;1.90;0.97;;;;;;;12.84;47.57;99918.78;5059327;28;42559;-84
2021/11/09 15:27:44;;;;;;;2.67;1.13;;;;;;;12.64;48.20;99906.56;5064561;28;41165;-77
2021/11/09 15:30:16;;;;;;;2.23;1.10;;;;;;;12.48;48.53;99905.72;5072055;28;38939;-84
2021/11/09 15:32:44;;;;;;;5.87;1.40;;;;;;;12.33;48.30;99907.38;5072869;28;41997;-83
2021/11/09 15:35:18;;;;;;;2.60;1.20;;;;;;;12.11;49.34;99890.84;5072953;28;41629;-84
2021/11/09 15:37:49;;;;;;;1.30;1.07;;;;;;;12.01;49.17;99900.22;5072319;28;42372;-81
2021/11/09 15:40:20;;;;;;;1.10;0.90;;;;;;;11.86;49.92;99896.56;5089257;28;40906;-81
2021/11/09 15:42:49;;;;;;;1.07;1.07;;;;;;;11.70;50.13;99895.59;5073025;28;42078;-81
2021/11/09 15:45:18;;;;;;;1.90;1.20;;;;;;;11.53;50.12;99899.06;5070848;28;42144;-82
2021/11/09 15:47:46;;;;;;;1.30;1.20;;;;;;;11.34;50.49;99899.16;5088916;28;43296;-82
2021/11/09 15:50:14;;;;;;;1.27;1.03;;;;;;;11.16;50.83;99890.28;5071571;28;39327;-80
2021/11/09 15:52:42;;;;;;;1.53;1.27;;;;;;;11.13;50.29;99916.94;5072194;28;40625;-80
2021/11/09 15:55:10;;;;;;;1.93;1.20;;;;;;;10.87;50.65;99885.53;5071776;28;41975;-85
2021/11/09 15:57:38;;;;;;;3.10;1.40;;;;;;;10.80;51.41;99894.69;5088737;28;42121;-85
2021/11/09 16:00:10;;;;;;;2.83;1.50;;;;;;;10.61;52.04;99876.16;5071606;28;39212;-87
2021/11/09 16:02:42;;;;;;;3.17;1.57;;;;;;;10.48;51.74;99874.13;5072659;28;41968;-81
2021/11/09 16:05:10;;;;;;;1.70;1.20;;;;;;;10.44;52.20;99874.25;5088575;28;43690;-86
2021/11/09 16:07:37;;;;;;;1.37;1.20;;;;;;;10.32;52.35;99880.13;5071333;28;41251;-80
2021/11/09 16:10:07;;;;;;;1.27;1.10;;;;;;;10.12;52.14;99872.19;5083155;28;40002;-79
2021/11/09 16:12:35;;;;;;;1.83;1.40;;;;;;;10.08;52.84;99878.53;5088400;28;42707;-78
2021/11/09 16:15:04;;;;;;;1.90;1.50;;;;;;;9.95;52.68;99875.56;5087171;28;41793;-78
2021/11/09 16:17:32;;;;;;;2.43;1.43;;;;;;;9.77;52.90;99862.28;5122931;27;45016;-79
2021/11/09 16:20:01;;;;;;;2.90;2.10;;;;;;;9.77;52.92;99876.34;5088437;28;38741;-79
2021/11/09 16:22:33;;;;;;;2.67;1.70;;;;;;;9.66;53.23;99879.44;5071903;28;41595;-79
2021/11/09 16:25:02;;;;;;;1.33;1.23;;;;;;;9.56;53.48;99872.84;5088962;28;44696;-79
2021/11/09 16:27:30;;;;;;;2.70;1.30;;;;;;;9.46;53.46;99865.34;5071233;28;42891;-78
2021/11/09 16:30:14;;;;;;;3.87;1.30;;;;;;;9.35;53.79;99876.38;5088330;28;40897;-78
2021/11/09 16:32:44;;;;;;;1.20;1.10;;;;;;;9.27;53.90;99884.59;5091504;28;41733;-78
2021/11/09 16:35:22;;;;;;;1.60;1.20;;;;;;;9.16;53.60;99872.75;5070750;28;41805;-79
2021/11/09 16:37:50;;;;;;;1.97;1.30;;;;;;;9.00;53.93;99868.09;5121731;27;43232;-78
2021/11/09 16:40:23;;;;;;;1.80;1.13;;;;;;;8.98;54.02;99869.94;5087611;28;38889;-77
2021/11/09 16:42:54;;;;;;;1.70;1.20;;;;;;;8.77;54.09;99847.03;5076119;28;42712;-79
2021/11/09 16:45:24;;;;;;;0.97;0.97;;;;;;;8.81;55.34;99860.94;5068231;28;41624;-78
2021/11/09 16:47:55;;;;;;;1.57;1.23;;;;;;;8.73;55.82;99855.97;5070234;28;40953;-79
2021/11/09 16:53:20;;;;;;;1.70;1.33;;;;;;;8.56;55.56;99867.19;5065900;28;41611;-78
2021/11/09 16:58:54;;;;;;;2.60;1.40;;;;;;;8.41;55.60;99870.41;5056460;28;40950;-79
2021/11/09 17:04:18;;;;;;;2.17;1.50;;;;;;;8.26;55.82;99850.72;5039946;28;40828;-82
2021/11/09 18:22:18;;;;;;;4.00;1.40;;;;;;;6.61;65.06;99904.59;5089617;28;41673;-78
2021/11/09 18:24:46;;;;;;;4.10;2.47;;;;;;;6.56;64.85;99901.22;5059944;28;41744;-77
2021/11/09 18:27:15;;;;;;;2.37;1.40;;;;;;;6.42;64.82;99887.63;5073640;28;42200;-78
2021/11/09 18:29:46;;;;;;;3.27;2.00;;;;;;;6.50;64.72;99911.94;5074406;28;39466;-77
2021/11/09 18:32:14;;;;;;;3.07;1.70;;;;;;;6.46;64.62;99916.41;5072896;28;40914;-78
2021/11/09 18:34:44;;;;;;;2.63;1.77;;;;;;;6.42;65.55;99911.31;5089938;28;42470;-77
2021/11/09 18:37:12;;;;;;;2.43;1.70;;;;;;;6.38;65.18;99917.56;5090743;28;41297;-77
2021/11/09 18:39:40;;;;;;;4.03;2.00;;;;;;;6.32;65.08;99917.72;5107094;28;39843;-77
2021/11/09 18:42:09;;;;;;;5.87;2.50;;;;;;;6.29;64.97;99918.69;5088752;28;40340;-78
2021/11/09 18:44:37;;;;;;;1.47;1.37;;;;;;;6.25;65.30;99913.53;5090183;28;42795;-77
2021/11/09 18:47:08;;;;;;;2.03;1.63;;;;;;;6.21;65.57;99919.78;5072409;28;41490;-80
2021/11/09 18:49:40;;;;;;;3.07;1.73;;;;;;;6.16;65.40;99926.94;5072035;28;38554;-78
2021/11/09 18:52:09;;;;;;;3.33;1.93;;;;;;;6.05;65.15;99911.47;5089932;28;42907;-78
2021/11/09 18:54:37;;;;;;;2.63;2.27;;;;;;;5.94;65.37;99901.22;5090395;28;43649;-77
2021/11/09 18:57:06;;;;;;;2.90;2.10;;;;;;;5.99;65.64;99915.13;5089945;28;42059;-80
2021/11/09 18:59:35;;;;;;;3.33;1.90;;;;;;;5.83;65.99;99897.97;5088329;28;41844;-77
2021/11/09 19:02:04;;;;;;;2.73;2.00;;;;;;;5.88;67.77;99890.88;5089489;28;42092;-78
2021/11/09 19:04:33;;;;;;;4.40;2.40;;;;;;;5.81;68.03;99906.84;5089253;28;43913;-77
2021/11/09 19:07:01;;;;;;;3.63;2.33;;;;;;;5.74;67.40;99909.63;5090282;28;43202;-77
2021/11/09 19:09:29;;;;;;;3.13;2.20;;;;;;;5.70;67.14;99918.47;5090032;28;38701;-78
2021/11/09 19:11:56;;;;;;;3.40;2.30;;;;;;;5.66;67.34;99915.97;5089286;28;41989;-79
2021/11/09 19:14:25;;;;;;;4.33;2.43;;;;;;;5.61;67.22;99923.09;5091458;28;42871;-78
2021/11/09 19:16:53;;;;;;;3.50;2.27;;;;;;;5.56;67.09;99919.75;5090597;28;42500;-80
2021/11/09 19:19:21;;;;;;;2.23;2.00;;;;;;;5.44;66.96;99904.28;5072523;28;38785;-80
2021/11/09 19:21:50;;;;;;;3.43;2.20;;;;;;;5.50;66.89;99920.75;5070240;28;40598;-81
2021/11/09 19:24:19;;;;;;;4.57;2.37;;;;;;;5.47;67.34;99915.56;5068544;28;43069;-80
2021/11/09 19:26:47;;;;;;;3.60;2.23;;;;;;;5.34;67.54;99907.13;5069921;28;42054;-81
2021/11/09 19:29:17;;;;;;;3.27;2.20;;;;;;;5.41;68.17;99919.22;5088304;28;38905;-80
2021/11/09 19:31:44;;;;;;;3.87;2.77;;;;;;;5.38;67.87;99919.28;5085249;28;42114;-79
2021/11/09 19:34:12;;;;;;;4.23;3.83;;;;;;;5.35;67.76;99926.38;5089683;28;44093;-80
2021/11/09 19:36:41;;;;;;;4.20;2.63;;;;;;;5.30;67.36;99923.88;5123520;27;42313;-79
2021/11/09 19:39:12;;;;;;;3.97;2.67;;;;;;;5.07;67.41;99894.66;5090271;28;40901;-79
2021/11/09 19:41:40;;;;;;;1.83;1.70;;;;;;;5.23;67.11;99932.78;5069592;28;41594;-78
2021/11/09 19:44:09;;;;;;;2.93;2.50;;;;;;;5.06;67.07;99895.56;5052562;28;41401;-79
2021/11/09 19:46:40;;;;;;;2.90;2.17;;;;;;;5.15;67.24;99918.97;5087948;28;42508;-78
2021/11/09 19:49:12;;;;;;;3.70;2.17;;;;;;;5.12;67.37;99924.31;5088489;28;39911;-79
2021/11/09 19:51:40;;;;;;;2.20;2.00;;;;;;;5.10;67.47;99906.84;5072285;28;40849;-79
2021/11/09 19:54:11;;;;;;;2.37;1.83;;;;;;;5.01;67.85;99902.69;5089224;28;42796;-78
2021/11/09 19:56:43;;;;;;;3.47;3.00;;;;;;;5.04;67.37;99923.63;5089146;28;42513;-78
2021/11/09 19:59:14;;;;;;;4.27;3.07;;;;;;;4.99;67.41;99922.84;5089113;28;40178;-78
2021/11/09 20:01:43;;;;;;;4.50;3.47;;;;;;;4.95;67.36;99921.19;5089585;28;42706;-81
2021/11/09 20:04:11;;;;;;;4.40;2.87;;;;;;;4.88;67.23;99914.38;5071974;28;41843;-78
2021/11/09 20:06:38;;;;;;;2.23;2.03;;;;;;;4.83;67.90;99897.84;5090432;28;42103;-78
2021/11/09 20:09:07;;;;;;;2.47;2.27;;;;;;;4.85;68.40;99901.31;5071681;28;38910;-78
2021/11/09 20:11:39;;;;;;;3.50;2.07;;;;;;;4.78;68.49;99912.84;5088978;28;40785;-79
2021/11/09 20:14:18;;;;;;;3.23;2.30;;;;;;;4.79;68.43;99911.94;5072376;28;42113;-80
2021/11/09 20:16:46;;;;;;;3.57;2.63;;;;;;;4.73;69.31;99883.22;5098075;28;42570;-81
2021/11/09 20:19:18;;;;;;;4.93;3.70;;;;;;;4.72;69.12;99899.84;5088900;28;39918;-79
2021/11/09 20:21:46;;;;;;;3.90;2.90;;;;;;;4.72;68.86;99897.22;5072264;28;40804;-80
2021/11/09 20:24:14;;;;;;;3.40;2.80;;;;;;;4.70;68.71;99910.38;5105693;28;41767;-79
2021/11/09 20:26:43;;;;;;;4.50;2.60;;;;;;;4.56;68.94;99897.59;5106441;27;41180;-79
2021/11/09 20:29:11;;;;;;;4.30;2.20;;;;;;;4.55;68.73;99885.34;5089165;28;39903;-80
2021/11/09 20:31:39;;;;;;;2.90;2.10;;;;;;;4.58;69.35;99890.50;5089809;28;42015;-79
2021/11/09 20:34:06;;;;;;;4.13;3.00;;;;;;;4.53;69.62;99881.91;5088318;28;42905;-82
2021/11/09 20:36:34;;;;;;;5.83;3.07;;;;;;;4.50;70.09;99879.34;5072011;28;41308;-79
2021/11/09 20:39:02;;;;;;;4.27;3.30;;;;;;;4.52;70.36;99872.31;5089902;28;38828;-80
2021/11/09 20:41:29;;;;;;;6.40;3.77;;;;;;;4.61;71.52;99874.72;5088562;28;40786;-79
2021/11/09 20:43:58;;;;;;;4.37;3.00;;;;;;;4.61;71.00;99884.34;5120190;27;42951;-80
2021/11/09 20:46:26;;;;;;;3.70;2.63;;;;;;;4.61;70.64;99890.44;5070951;28;42254;-80
2021/11/09 20:48:54;;;;;;;3.90;2.60;;;;;;;4.66;71.12;99909.59;5072555;28;38971;-79
2021/11/09 20:51:23;;;;;;;6.10;3.67;;;;;;;4.69;71.19;99912.16;5071508;28;40809;-80
2021/11/09 20:53:51;;;;;;;3.30;2.40;;;;;;;4.63;71.15;99893.91;5087855;28;42825;-80
2021/11/09 20:56:19;;;;;;;8.57;3.97;;;;;;;4.62;72.11;99886.06;5071343;28;41342;-80
2021/11/09 20:58:47;;;;;;;5.00;2.90;;;;;;;4.73;72.25;99902.44;5071772;28;39779;-80
2021/11/09 21:01:16;;;;;;;8.03;4.00;;;;;;;4.72;73.74;99910.34;5071920;28;41642;-79
2021/11/09 21:03:44;;;;;;;5.90;3.60;;;;;;;4.72;73.34;99928.72;5088748;28;42796;-79
2021/11/09 21:06:11;;;;;;;4.13;3.17;;;;;;;4.65;73.03;99925.38;5071341;28;42340;-80
2021/11/09 21:08:39;;;;;;;6.17;3.30;;;;;;;4.66;72.39;99930.59;5072487;28;38797;-79
2021/11/09 21:11:08;;;;;;;3.63;2.90;;;;;;;4.50;72.12;99913.44;5072132;28;41434;-81
2021/11/09 21:19:09;;;;;;;5.03;2.47;;;;;;;4.47;71.76;99937.09;5089604;28;39961;-79
2021/11/09 21:21:36;;;;;;;4.40;3.27;;;;;;;4.43;71.53;99932.81;5088721;28;41545;-79
2021/11/09 21:24:05;;;;;;;4.57;3.40;;;;;;;4.32;71.80;99914.69;5074437;28;41601;-80
2021/11/09 21:26:33;;;;;;;4.43;2.77;;;;;;;4.25;72.73;99905.22;5095651;28;43209;-80
2021/11/09 21:29:13;;;;;;;3.20;2.90;;;;;;;4.34;72.19;99927.75;5076926;28;38829;-79
2021/11/09 21:31:50;;;;;;;4.63;2.77;;;;;;;4.28;72.27;99912.16;5092606;28;42001;-80
2021/11/09 21:37:03;;;;;;;3.63;2.67;;;;;;;4.21;72.29;99906.16;5074794;28;41259;-80
2021/11/09 21:39:32;;;;;;;4.33;3.13;;;;;;;4.18;72.11;99911.47;5087319;28;40400;-79
2021/11/09 21:42:00;;;;;;;3.80;2.70;;;;;;;4.24;72.34;99926.22;5070812;28;41812;-79
2021/11/09 21:44:27;;;;;;;3.73;2.80;;;;;;;4.19;72.26;99923.69;5088516;28;41957;-79
2021/11/09 21:46:57;;;;;;;3.73;3.03;;;;;;;4.25;73.28;99922.69;5088561;28;42512;-79
2021/11/09 21:49:25;;;;;;;2.87;2.33;;;;;;;4.23;72.65;99914.00;5073901;28;39295;-79
2021/11/09 21:51:54;;;;;;;3.67;2.47;;;;;;;4.23;72.39;99898.25;5071624;28;40377;-79
2021/11/09 21:54:24;;;;;;;4.60;2.70;;;;;;;4.15;72.72;99892.31;5071031;28;41794;-79
2021/11/09 21:56:51;;;;;;;5.97;4.37;;;;;;;4.26;72.53;99909.56;5071019;28;42139;-78
2021/11/09 21:59:19;;;;;;;5.83;3.13;;;;;;;4.05;72.51;99882.91;5090320;28;38953;-79
2021/11/09 22:01:47;;;;;;;3.13;2.20;;;;;;;4.13;72.49;99908.06;5092022;28;41501;-80
2021/11/09 22:04:16;;;;;;;3.47;2.77;;;;;;;4.14;72.84;99920.28;5074548;28;41315;-79
2021/11/09 22:06:44;;;;;;;3.67;2.80;;;;;;;4.10;72.59;99909.88;5092396;28;43120;-79
2021/11/09 22:09:12;;;;;;;4.17;3.07;;;;;;;4.23;72.83;99919.22;5074429;28;38742;-80
2021/11/09 22:11:40;;;;;;;5.07;3.23;;;;;;;4.22;72.79;99938.47;5074366;28;39917;-80
2021/11/09 22:14:08;;;;;;;3.60;2.53;;;;;;;4.18;72.74;99936.84;5074075;28;42010;-78
2021/11/09 22:16:36;;;;;;;3.83;3.07;;;;;;;4.13;72.52;99939.53;5091576;28;42058;-79
2021/11/09 22:19:04;;;;;;;6.10;4.13;;;;;;;4.06;72.82;99927.44;5091144;28;40212;-80
2021/11/09 22:21:33;;;;;;;10.23;4.33;;;;;;;4.01;72.64;99925.78;5091293;28;41768;-78
2021/11/09 22:24:01;;;;;;;10.20;5.43;;;;;;;4.02;72.92;99924.91;5091885;28;42711;-79
2021/11/09 22:26:29;;;;;;;10.23;4.50;;;;;;;3.87;72.90;99911.19;5092645;28;42299;-80
2021/11/09 22:28:56;;;;;;;7.23;4.20;;;;;;;3.93;73.19;99915.47;5091670;28;40120;-79
2021/11/09 22:31:24;;;;;;;8.80;4.80;;;;;;;3.92;73.31;99927.72;5092069;28;41673;-80
2021/11/09 22:33:52;;;;;;;6.07;3.13;;;;;;;3.76;73.35;99913.16;5125115;27;43045;-79
2021/11/09 22:36:19;;;;;;;7.63;4.13;;;;;;;3.86;73.26;99922.56;5091327;28;41610;-79
2021/11/09 22:38:50;;;;;;;6.50;3.33;;;;;;;3.85;74.63;99912.09;5076973;28;39066;-80
2021/11/09 22:41:17;;;;;;;6.90;3.93;;;;;;;3.78;74.42;99913.13;5070331;28;41880;-77
2021/11/09 22:43:46;;;;;;;6.63;2.97;;;;;;;3.75;74.07;99921.03;5070466;28;44259;-78
2021/11/09 22:46:17;;;;;;;6.77;2.77;;;;;;;3.78;73.98;99920.97;5053506;28;41261;-77
2021/11/09 22:48:45;;;;;;;5.03;2.53;;;;;;;3.75;73.71;99916.66;5063684;28;39025;-78
2021/11/09 22:51:13;;;;;;;3.57;2.70;;;;;;;3.73;74.00;99912.31;5091226;28;42028;-79
2021/11/09 22:53:41;;;;;;;4.27;2.77;;;;;;;3.71;74.04;99914.97;5073837;28;41761;-78
2021/11/09 22:56:10;;;;;;;5.53;2.50;;;;;;;3.70;73.96;99922.88;5091813;28;43626;-79
2021/11/09 22:58:38;;;;;;;3.90;2.37;;;;;;;3.53;73.97;99889.13;5054162;28;39039;-78
2021/11/09 23:01:07;;;;;;;3.07;2.47;;;;;;;3.64;73.84;99918.59;5053410;28;42423;-79
2021/11/09 23:03:35;;;;;;;4.07;3.40;;;;;;;3.49;73.66;99890.91;5071465;28;42816;-79
2021/11/09 23:06:04;;;;;;;3.10;2.17;;;;;;;3.58;73.69;99901.25;5070043;28;42414;-79